Terminal Aerodrome Forecast
Issued by NWS Sterling, VA

Current Version | Previous Version | Text Only | Print | Product List | Glossary Off
Versions: 1 2 3 4 5 6 7 8 9 10 11 12 13 14 15 16 17 18 19 20 21 22 23 24 25

000
FTUS41 KLWX 271127
TAFDCA
TAF
KDCA 271127Z 2712/2812 19009KT P6SM SCT021 SCT250
     FM271400 19012KT P6SM SCT030 SCT080
     FM272000 21013KT 6SM -SHRA VCTS BKN040CB OVC100
     FM280000 19007KT P6SM FEW035 BKN140
     FM280600 VRB04KT P6SM BKN150=

USA.gov is the U.S. government's official web portal to all federal, state and local government web resources and services.